Time;durP1;ratioP1;P1;durP2;ratioP2;P2;SDS_P1;SDS_P2;PMS_P1;PMS_P2;Temp;Humidity;BMP_temperature;BMP_pressure;BME280_temperature;BME280_humidity;BME280_pressure;Samples;Min_cycle;Max_cycle;Signal;HPM_P1;HPM_P2
2021/04/23 00:01:31;;;;;;;10.47;3.60;;;;;;;3.60;81.09;96969.47;5058463;28;20338;-70
2021/04/23 00:03:59;;;;;;;8.70;4.00;;;;;;;3.55;80.86;96974.19;5057825;28;20207;-70
2021/04/23 00:06:29;;;;;;;15.63;3.97;;;;;;;3.39;81.25;96961.50;5056663;28;21081;-70
2021/04/23 00:08:58;;;;;;;17.40;3.90;;;;;;;3.44;81.84;96979.41;5057503;28;20641;-70
2021/04/23 00:11:29;;;;;;;8.90;4.00;;;;;;;3.44;81.35;96971.59;5057165;28;20218;-71
2021/04/23 00:13:55;;;;;;;8.40;3.73;;;;;;;3.52;81.17;96966.63;5058127;28;20207;-70
2021/04/23 00:16:21;;;;;;;7.93;3.63;;;;;;;3.28;82.27;96974.50;5057136;28;20231;-71
2021/04/23 00:18:48;;;;;;;9.57;4.13;;;;;;;3.27;82.38;96964.22;5057760;28;20239;-71
2021/04/23 00:21:18;;;;;;;10.83;3.77;;;;;;;3.40;82.30;96967.53;5054319;28;20587;-70
2021/04/23 00:23:45;;;;;;;9.83;3.40;;;;;;;3.01;82.75;96973.16;5057580;28;20327;-70
2021/04/23 00:26:11;;;;;;;10.13;3.30;;;;;;;3.08;82.92;96969.13;5055566;28;20200;-71
2021/04/23 00:28:38;;;;;;;9.30;3.80;;;;;;;3.07;82.30;96970.09;5056853;28;20216;-71
2021/04/23 00:31:05;;;;;;;9.97;3.43;;;;;;;3.06;82.19;96965.81;5057280;28;20211;-70
2021/04/23 00:33:33;;;;;;;9.80;3.50;;;;;;;3.02;82.43;96969.59;5057462;28;20208;-71
2021/04/23 00:35:59;;;;;;;7.00;3.73;;;;;;;2.98;82.68;96965.56;5055278;28;20243;-70
2021/04/23 00:38:27;;;;;;;8.97;3.87;;;;;;;2.95;83.17;96978.78;5057083;28;20597;-70
2021/04/23 00:40:59;;;;;;;9.60;3.43;;;;;;;2.83;83.63;96977.09;5057560;28;20204;-70
2021/04/23 00:43:29;;;;;;;9.73;3.80;;;;;;;2.63;84.80;96975.13;5056819;28;20318;-70
2021/04/23 00:45:55;;;;;;;10.60;3.80;;;;;;;2.72;84.77;96974.44;5056769;28;20286;-70
2021/04/23 00:48:21;;;;;;;8.03;3.80;;;;;;;2.73;84.19;96975.28;5057087;28;20223;-69
2021/04/23 00:50:50;;;;;;;13.03;3.80;;;;;;;2.83;84.15;96978.88;5057179;28;20204;-71
2021/04/23 00:53:20;;;;;;;7.67;3.50;;;;;;;2.77;84.37;96974.94;5056675;28;21216;-71
2021/04/23 00:55:47;;;;;;;9.47;4.40;;;;;;;2.85;84.10;96985.66;5056637;28;20224;-71
2021/04/23 00:58:16;;;;;;;10.13;3.50;;;;;;;2.81;83.14;96978.16;5056361;28;20227;-71
2021/04/23 01:00:44;;;;;;;12.03;3.80;;;;;;;2.76;83.75;96981.13;5057364;28;20212;-70
2021/04/23 01:03:10;;;;;;;13.00;4.03;;;;;;;2.75;83.43;96974.25;5057851;28;20201;-70
2021/04/23 01:05:36;;;;;;;11.10;4.00;;;;;;;2.54;85.31;96972.38;5055668;28;20748;-70
2021/04/23 01:08:03;;;;;;;9.73;4.00;;;;;;;2.60;83.92;96975.34;5056349;28;20258;-70
2021/04/23 01:10:30;;;;;;;12.67;3.57;;;;;;;2.61;83.92;96969.22;5057177;28;21211;-70
2021/04/23 01:12:57;;;;;;;10.10;3.50;;;;;;;2.53;83.58;96971.53;5056302;28;20582;-71
2021/04/23 01:15:25;;;;;;;8.17;3.80;;;;;;;2.55;83.23;96980.03;5055927;28;20200;-71
2021/04/23 01:17:52;;;;;;;9.83;3.37;;;;;;;2.56;83.96;96966.09;5057430;28;20285;-70
2021/04/23 01:20:19;;;;;;;8.70;3.57;;;;;;;2.50;84.53;96974.34;5053801;28;20193;-70
2021/04/23 01:22:46;;;;;;;9.17;3.50;;;;;;;2.48;84.57;96971.03;5056479;28;20216;-70
2021/04/23 01:25:14;;;;;;;10.67;3.70;;;;;;;2.59;84.33;96959.84;5056318;28;20643;-70
2021/04/23 01:27:40;;;;;;;9.03;3.23;;;;;;;2.57;83.70;96969.53;5056125;28;20743;-70
2021/04/23 01:30:09;;;;;;;13.73;3.60;;;;;;;2.30;84.67;96976.72;5056617;28;20291;-69
2021/04/23 01:32:38;;;;;;;9.07;3.77;;;;;;;2.36;84.75;96972.88;5057021;28;20210;-70
2021/04/23 01:35:06;;;;;;;10.17;4.00;;;;;;;2.26;85.12;96979.66;5055884;28;20265;-70
2021/04/23 01:37:32;;;;;;;10.37;4.07;;;;;;;2.37;85.67;96974.50;5056091;28;20708;-70
2021/04/23 01:39:59;;;;;;;10.03;3.77;;;;;;;2.40;85.24;96965.53;5061014;28;20321;-70
2021/04/23 01:42:25;;;;;;;9.43;3.43;;;;;;;2.42;85.18;96971.47;5060640;28;20678;-70
2021/04/23 01:44:57;;;;;;;9.03;3.40;;;;;;;2.44;84.16;96974.81;5058808;28;20205;-70
2021/04/23 01:47:23;;;;;;;8.57;3.80;;;;;;;2.36;84.93;96980.66;5058959;28;20220;-70
2021/04/23 01:49:49;;;;;;;9.83;3.73;;;;;;;2.35;84.34;96976.41;5060250;28;20266;-69
2021/04/23 01:52:18;;;;;;;10.87;4.33;;;;;;;2.31;84.36;96973.19;5060195;28;20199;-70
2021/04/23 01:54:45;;;;;;;8.73;3.87;;;;;;;2.36;84.28;96968.47;5060216;28;20212;-69
2021/04/23 01:57:11;;;;;;;13.50;4.20;;;;;;;2.27;85.27;96966.53;5059370;28;20353;-70
2021/04/23 01:59:40;;;;;;;10.80;3.60;;;;;;;2.39;85.58;96980.44;5059859;28;20201;-70
2021/04/23 02:02:06;;;;;;;8.13;3.67;;;;;;;1.99;87.37;96986.81;5060689;28;20211;-70
2021/04/23 02:04:33;;;;;;;15.63;3.83;;;;;;;1.83;87.25;96991.38;5060040;28;20565;-70
2021/04/23 02:06:59;;;;;;;11.13;3.57;;;;;;;2.00;86.02;96989.28;5059215;28;20213;-71
2021/04/23 02:09:25;;;;;;;8.57;3.90;;;;;;;2.04;87.42;96993.34;5060006;28;20203;-71
2021/04/23 02:11:53;;;;;;;10.53;4.10;;;;;;;1.96;87.20;96992.19;5060401;28;20716;-70
2021/04/23 02:14:22;;;;;;;9.10;3.90;;;;;;;2.18;87.35;96980.19;5059601;28;20249;-70
2021/04/23 02:16:49;;;;;;;7.53;3.30;;;;;;;2.22;87.14;96981.63;5058970;28;20239;-71
2021/04/23 02:19:16;;;;;;;9.40;3.60;;;;;;;2.27;85.48;96989.13;5059081;28;20204;-70
2021/04/23 02:21:44;;;;;;;9.83;3.67;;;;;;;2.16;86.10;96986.44;5058418;28;20212;-71
2021/04/23 02:24:11;;;;;;;12.17;3.97;;;;;;;2.07;85.82;96987.09;5060078;28;20210;-70
2021/04/23 02:26:38;;;;;;;8.90;3.70;;;;;;;2.05;87.04;96991.56;5059210;28;20200;-70
2021/04/23 02:29:06;;;;;;;8.90;3.67;;;;;;;2.04;87.05;96989.91;5059525;28;20203;-69
2021/04/23 02:31:36;;;;;;;11.93;3.70;;;;;;;2.00;86.53;96984.09;5059658;28;20226;-71
2021/04/23 02:34:05;;;;;;;7.00;3.07;;;;;;;1.96;85.09;96981.81;5059286;28;20201;-70
2021/04/23 02:36:31;;;;;;;11.70;4.07;;;;;;;1.89;86.41;96985.78;5058141;28;20220;-70
2021/04/23 02:38:58;;;;;;;16.57;3.70;;;;;;;1.85;87.59;96979.13;5059805;28;20697;-70
2021/04/23 02:41:25;;;;;;;12.73;4.10;;;;;;;1.80;88.69;96987.22;5059326;28;20210;-70
2021/04/23 02:43:53;;;;;;;11.40;3.33;;;;;;;1.82;88.55;97000.97;5059387;28;20598;-70
2021/04/23 02:46:21;;;;;;;14.03;3.33;;;;;;;1.77;87.84;96991.84;5058307;28;20220;-70
2021/04/23 02:48:48;;;;;;;8.67;3.67;;;;;;;1.55;87.89;96996.00;5059349;28;20227;-70
2021/04/23 02:51:16;;;;;;;13.53;4.10;;;;;;;1.63;88.35;96998.88;5055639;28;20212;-69
2021/04/23 02:53:43;;;;;;;15.10;3.73;;;;;;;1.62;89.22;96997.25;5059698;28;20207;-70
2021/04/23 02:56:11;;;;;;;13.00;3.70;;;;;;;1.64;88.90;97001.38;5058240;28;20238;-71
2021/04/23 02:58:37;;;;;;;10.63;3.73;;;;;;;1.79;88.71;96997.75;5058954;28;20227;-70
2021/04/23 03:01:08;;;;;;;12.27;3.57;;;;;;;1.68;88.87;97007.19;5058997;28;20229;-70
2021/04/23 03:03:34;;;;;;;8.90;3.30;;;;;;;1.69;87.38;97003.69;5059487;28;20688;-70
2021/04/23 03:06:01;;;;;;;10.97;3.53;;;;;;;1.62;88.33;97008.47;5058159;28;21155;-70
2021/04/23 03:08:27;;;;;;;8.30;3.33;;;;;;;1.65;88.34;97002.22;5057036;28;20227;-71
2021/04/23 03:10:56;;;;;;;11.23;3.93;;;;;;;1.63;88.28;97010.13;5059164;28;20299;-70
2021/04/23 03:13:25;;;;;;;8.67;3.17;;;;;;;1.54;89.03;97008.16;5058730;28;20199;-71
2021/04/23 03:15:53;;;;;;;7.83;3.30;;;;;;;1.22;88.52;97012.09;5057912;28;20242;-70
2021/04/23 03:18:21;;;;;;;15.83;3.40;;;;;;;1.24;88.81;97005.00;5059262;28;20246;-70
2021/04/23 03:20:48;;;;;;;11.23;3.87;;;;;;;1.21;89.07;97000.03;5056306;28;20207;-70
2021/04/23 03:23:15;;;;;;;10.10;3.57;;;;;;;1.32;90.48;97001.91;5058479;28;20257;-70
2021/04/23 03:25:42;;;;;;;10.30;3.83;;;;;;;1.27;89.96;96994.44;5058412;28;21004;-71
2021/04/23 03:28:08;;;;;;;9.30;3.33;;;;;;;1.49;89.23;96999.00;5058697;28;20225;-69
2021/04/23 03:30:39;;;;;;;11.10;3.47;;;;;;;1.29;88.07;96996.94;5058556;28;20202;-70
2021/04/23 03:33:06;;;;;;;13.47;3.50;;;;;;;1.33;87.86;97003.56;5057872;28;20197;-70
2021/04/23 03:35:33;;;;;;;12.73;3.37;;;;;;;1.37;88.45;97008.44;5058709;28;20219;-70
2021/04/23 03:38:00;;;;;;;11.53;3.87;;;;;;;1.39;89.33;97006.59;5058540;28;20227;-70
2021/04/23 03:40:30;;;;;;;10.07;3.70;;;;;;;1.24;90.10;97011.97;5058070;28;20201;-69
2021/04/23 03:42:57;;;;;;;9.80;3.90;;;;;;;1.24;90.28;97012.81;5059086;28;20216;-70
2021/04/23 03:45:25;;;;;;;9.93;3.50;;;;;;;1.21;90.05;97015.63;5057490;28;20262;-69
2021/04/23 03:47:52;;;;;;;8.00;3.70;;;;;;;1.26;88.27;97005.75;5057646;28;20219;-70
2021/04/23 03:50:21;;;;;;;9.70;3.87;;;;;;;1.34;88.48;97013.03;5058736;28;20208;-70
2021/04/23 03:52:48;;;;;;;7.83;3.70;;;;;;;1.29;89.35;97013.31;5058398;28;20208;-69
2021/04/23 03:55:18;;;;;;;10.00;3.90;;;;;;;1.32;89.60;97015.75;5057225;28;20201;-70
2021/04/23 03:57:45;;;;;;;10.67;3.97;;;;;;;1.32;89.98;97012.28;5058187;28;20239;-70
2021/04/23 04:00:14;;;;;;;13.23;4.10;;;;;;;1.36;88.66;97016.34;5057706;28;20207;-70
2021/04/23 04:02:40;;;;;;;9.53;3.40;;;;;;;1.27;86.09;97012.63;5057568;28;20655;-70
2021/04/23 04:05:08;;;;;;;8.27;3.33;;;;;;;1.22;86.77;97022.47;5057433;28;20216;-70
2021/04/23 04:07:34;;;;;;;13.73;4.23;;;;;;;1.20;87.98;97026.09;5057794;28;20570;-70
2021/04/23 04:10:01;;;;;;;7.70;3.40;;;;;;;1.19;87.89;97023.63;5057489;28;20609;-70
2021/04/23 04:12:27;;;;;;;7.80;3.63;;;;;;;1.31;87.96;97023.59;5057654;28;21288;-70
2021/04/23 04:14:54;;;;;;;11.77;3.67;;;;;;;1.06;87.47;97033.09;5057963;28;20212;-70
2021/04/23 04:17:20;;;;;;;7.93;3.37;;;;;;;1.07;88.37;97030.44;5056921;28;20245;-70
2021/04/23 04:19:46;;;;;;;9.50;3.67;;;;;;;1.04;88.69;97035.81;5055296;28;20204;-70
2021/04/23 04:22:12;;;;;;;14.50;4.10;;;;;;;1.09;88.21;97032.94;5057943;28;20208;-71
2021/04/23 04:24:38;;;;;;;12.90;3.80;;;;;;;1.14;89.14;97036.06;5057527;28;20204;-70
2021/04/23 04:27:04;;;;;;;15.13;3.83;;;;;;;1.15;89.19;97042.91;5056959;28;20335;-71
2021/04/23 04:29:30;;;;;;;11.33;3.87;;;;;;;1.09;88.90;97043.31;5057543;28;20211;-69
2021/04/23 04:31:57;;;;;;;9.07;3.80;;;;;;;0.99;90.04;97037.88;5057580;28;20204;-70
2021/04/23 04:34:23;;;;;;;7.53;3.70;;;;;;;0.98;89.92;97044.03;5056953;28;20282;-71
2021/04/23 04:36:49;;;;;;;11.07;3.70;;;;;;;1.11;90.16;97041.44;5056720;28;20247;-69
2021/04/23 04:39:15;;;;;;;7.67;3.23;;;;;;;1.05;89.68;97050.47;5057310;28;20749;-71
2021/04/23 04:41:41;;;;;;;11.83;3.70;;;;;;;0.76;89.48;97041.16;5057506;28;20212;-70
2021/04/23 04:44:07;;;;;;;10.27;3.67;;;;;;;0.95;88.49;97051.16;5056841;28;20220;-69
2021/04/23 04:46:34;;;;;;;9.63;3.53;;;;;;;0.97;89.60;97046.69;5057190;28;20255;-70
2021/04/23 04:49:01;;;;;;;11.70;4.20;;;;;;;1.02;90.43;97052.41;5056009;28;20201;-70
2021/04/23 04:51:27;;;;;;;8.47;3.43;;;;;;;1.01;90.83;97055.97;5056536;28;20254;-70
2021/04/23 04:53:53;;;;;;;11.83;4.23;;;;;;;1.18;90.48;97056.50;5057528;28;20885;-70
2021/04/23 04:56:20;;;;;;;9.87;3.50;;;;;;;1.18;91.04;97064.28;5056575;28;20280;-70
2021/04/23 04:58:46;;;;;;;14.27;4.23;;;;;;;1.30;90.94;97064.31;5057247;28;21160;-69
2021/04/23 05:01:14;;;;;;;12.03;4.07;;;;;;;1.34;90.74;97064.97;5056824;28;20265;-69
2021/04/23 05:03:40;;;;;;;13.57;4.87;;;;;;;1.49;89.24;97067.38;5057281;28;20206;-70
2021/04/23 05:06:08;;;;;;;14.83;4.50;;;;;;;1.55;89.79;97071.31;5055547;28;20200;-70
2021/04/23 05:08:34;;;;;;;11.83;3.87;;;;;;;1.50;91.65;97084.63;5057066;28;20651;-70
2021/04/23 05:11:00;;;;;;;8.93;4.10;;;;;;;1.39;92.63;97091.47;5056721;28;20216;-70
2021/04/23 05:13:26;;;;;;;15.53;4.50;;;;;;;1.52;91.82;97095.72;5056470;28;20198;-71
2021/04/23 05:15:52;;;;;;;14.70;4.93;;;;;;;1.69;90.72;97087.63;5055644;28;20250;-71
2021/04/23 05:18:18;;;;;;;13.53;5.53;;;;;;;1.85;90.52;97091.69;5056816;28;20218;-70
2021/04/23 05:20:44;;;;;;;23.23;5.90;;;;;;;2.01;92.12;97091.47;5052765;28;20204;-71
2021/04/23 05:23:11;;;;;;;16.33;5.67;;;;;;;2.16;92.83;97093.03;5056292;28;20192;-70
2021/04/23 05:25:37;;;;;;;14.57;5.50;;;;;;;2.32;92.15;97093.63;5055751;28;20657;-70
2021/04/23 05:28:04;;;;;;;16.47;5.13;;;;;;;2.39;92.98;97100.06;5056636;28;20226;-70
2021/04/23 05:30:33;;;;;;;17.77;5.37;;;;;;;2.43;93.18;97100.59;5056101;28;20234;-70
2021/04/23 05:33:01;;;;;;;15.80;5.77;;;;;;;2.49;94.02;97100.13;5056228;28;20684;-71
2021/04/23 05:35:28;;;;;;;16.77;6.10;;;;;;;2.56;95.22;97103.16;5056607;28;20201;-70
2021/04/23 05:37:55;;;;;;;14.73;5.70;;;;;;;2.78;94.38;97108.50;5056514;28;20247;-70
2021/04/23 05:40:26;;;;;;;14.77;5.90;;;;;;;2.87;93.57;97103.47;5056301;28;20784;-71
2021/04/23 05:42:52;;;;;;;19.27;5.73;;;;;;;3.01;92.04;97102.50;5056525;28;20573;-71
2021/04/23 05:45:19;;;;;;;18.60;5.53;;;;;;;3.09;91.85;97104.44;5055845;28;20222;-70
2021/04/23 05:47:45;;;;;;;14.73;6.07;;;;;;;3.24;90.84;97107.69;5056542;28;20221;-71
2021/04/23 05:50:13;;;;;;;17.03;6.60;;;;;;;3.37;91.05;97106.66;5056512;28;20207;-70
2021/04/23 05:52:40;;;;;;;18.37;6.57;;;;;;;3.39;90.83;97106.56;5056355;28;21079;-70
2021/04/23 05:55:09;;;;;;;14.33;6.43;;;;;;;3.45;90.43;97106.94;5055993;28;20196;-70
2021/04/23 05:57:38;;;;;;;13.27;5.90;;;;;;;3.57;89.38;97111.25;5055742;28;20282;-70
2021/04/23 06:00:06;;;;;;;18.33;6.97;;;;;;;3.70;88.91;97110.22;5056284;28;20220;-71
2021/04/23 06:02:32;;;;;;;16.30;6.87;;;;;;;3.83;88.58;97108.34;5056334;28;20270;-71
2021/04/23 06:04:58;;;;;;;23.10;7.27;;;;;;;3.96;87.79;97110.84;5056412;28;20197;-72
2021/04/23 06:07:24;;;;;;;14.73;6.57;;;;;;;3.95;88.44;97107.44;5055629;28;20278;-70
2021/04/23 06:09:50;;;;;;;17.13;6.47;;;;;;;4.18;87.07;97106.50;5056684;28;20322;-71
2021/04/23 06:12:16;;;;;;;18.67;6.20;;;;;;;4.24;86.94;97103.44;5055910;28;20197;-70
2021/04/23 06:14:43;;;;;;;20.20;7.37;;;;;;;4.38;86.81;97105.81;5056819;28;20208;-70
2021/04/23 06:17:10;;;;;;;20.60;7.57;;;;;;;4.48;86.67;97109.34;5054303;28;20232;-71
2021/04/23 06:19:36;;;;;;;18.00;7.27;;;;;;;4.55;85.02;97108.75;5053020;28;20746;-71
2021/04/23 06:22:02;;;;;;;19.30;6.83;;;;;;;4.62;85.11;97114.31;5055554;28;20204;-71
2021/04/23 06:24:28;;;;;;;20.03;6.43;;;;;;;4.70;83.80;97114.53;5056596;28;20196;-70
2021/04/23 06:26:54;;;;;;;22.43;7.00;;;;;;;4.84;83.45;97110.75;5058444;28;20315;-70
2021/04/23 06:29:20;;;;;;;18.03;6.30;;;;;;;5.00;82.62;97108.59;5059168;28;21154;-71
2021/04/23 06:31:47;;;;;;;14.53;6.03;;;;;;;5.13;81.94;97109.25;5060336;28;20576;-69
2021/04/23 06:34:13;;;;;;;16.53;6.20;;;;;;;5.29;81.60;97112.28;5059567;28;20207;-70
2021/04/23 06:36:40;;;;;;;15.70;6.20;;;;;;;5.35;80.58;97116.22;5058501;28;20315;-70
2021/04/23 06:39:14;;;;;;;18.50;6.10;;;;;;;5.30;79.81;97120.97;5060039;28;20197;-70
2021/04/23 06:41:40;;;;;;;16.10;6.30;;;;;;;5.53;79.27;97118.16;5059490;28;20192;-69
2021/04/23 06:44:06;;;;;;;16.30;6.07;;;;;;;5.63;78.39;97122.50;5059573;28;20204;-69
2021/04/23 06:46:32;;;;;;;17.67;5.83;;;;;;;5.72;79.32;97121.72;5058781;28;20201;-71
2021/04/23 06:48:59;;;;;;;16.23;6.30;;;;;;;5.83;81.27;97128.72;5059773;28;20196;-70
2021/04/23 06:51:25;;;;;;;15.17;5.33;;;;;;;5.83;79.85;97120.88;5059486;28;20255;-70
2021/04/23 06:53:51;;;;;;;15.77;5.43;;;;;;;6.04;79.24;97133.81;5059189;28;20200;-71
2021/04/23 06:56:17;;;;;;;17.70;5.33;;;;;;;6.13;78.29;97127.00;5058232;28;20224;-71
2021/04/23 06:58:46;;;;;;;19.53;5.60;;;;;;;6.25;79.92;97137.28;5059255;28;20235;-70
2021/04/23 07:01:12;;;;;;;13.10;5.20;;;;;;;6.44;79.60;97120.84;5058810;28;20205;-72
2021/04/23 07:03:40;;;;;;;15.93;5.30;;;;;;;6.53;78.26;97125.28;5058555;28;20207;-70
2021/04/23 07:06:08;;;;;;;14.30;5.23;;;;;;;6.80;80.58;97129.00;5058137;28;20197;-70
2021/04/23 07:08:34;;;;;;;12.83;5.27;;;;;;;6.84;76.04;97125.16;5058416;28;20220;-70
2021/04/23 07:11:00;;;;;;;14.53;4.53;;;;;;;7.05;75.90;97118.88;5058599;28;20767;-69
2021/04/23 07:13:26;;;;;;;12.20;3.50;;;;;;;7.09;72.61;97128.13;5058849;28;20200;-71
2021/04/23 07:15:53;;;;;;;17.80;4.00;;;;;;;7.21;70.87;97131.47;5056648;28;20208;-70
2021/04/23 07:18:19;;;;;;;16.43;4.10;;;;;;;7.38;70.86;97127.22;5057118;28;20227;-69
2021/04/23 07:20:45;;;;;;;14.60;3.47;;;;;;;7.47;69.43;97136.88;5055123;28;20658;-72
2021/04/23 07:23:12;;;;;;;12.67;3.60;;;;;;;7.70;68.03;97129.56;5058288;28;20319;-71
2021/04/23 07:25:39;;;;;;;13.07;4.10;;;;;;;7.82;67.36;97131.91;5057390;28;20209;-70
2021/04/23 07:28:06;;;;;;;15.37;3.93;;;;;;;7.91;65.42;97133.72;5058458;28;20227;-70
2021/04/23 07:30:35;;;;;;;12.87;3.90;;;;;;;8.07;67.47;97133.97;5058439;28;20254;-70
2021/04/23 07:33:04;;;;;;;12.73;4.00;;;;;;;8.16;64.38;97131.38;5058813;28;20258;-69
2021/04/23 07:35:30;;;;;;;10.77;3.70;;;;;;;8.16;64.15;97135.78;5056808;28;20762;-70
2021/04/23 07:37:57;;;;;;;11.90;3.47;;;;;;;8.18;64.15;97146.97;5057847;28;20228;-72
2021/04/23 07:40:25;;;;;;;10.67;3.60;;;;;;;8.33;65.20;97140.31;5057925;28;20236;-70
2021/04/23 07:42:52;;;;;;;12.00;4.13;;;;;;;8.43;66.70;97138.50;5059706;28;20201;-69
2021/04/23 07:45:18;;;;;;;15.17;4.13;;;;;;;8.54;64.05;97145.25;5057569;28;20200;-70
2021/04/23 07:47:45;;;;;;;12.57;4.00;;;;;;;8.58;62.54;97141.34;5058869;28;20221;-72
2021/04/23 07:50:14;;;;;;;14.07;4.20;;;;;;;8.66;61.75;97135.38;5058226;28;20254;-70
2021/04/23 07:52:40;;;;;;;12.63;3.90;;;;;;;8.60;60.83;97135.94;5057875;28;20254;-70
2021/04/23 07:55:08;;;;;;;18.60;3.93;;;;;;;8.67;59.84;97137.88;5057586;28;20201;-70
2021/04/23 07:57:36;;;;;;;10.93;3.87;;;;;;;8.77;61.19;97141.28;5057412;28;20220;-71
2021/04/23 08:00:03;;;;;;;12.40;3.73;;;;;;;8.74;60.58;97138.94;5057735;28;20246;-71
2021/04/23 08:02:29;;;;;;;12.90;3.40;;;;;;;8.92;61.05;97146.91;5057648;28;20215;-70
2021/04/23 08:04:55;;;;;;;11.37;3.90;;;;;;;9.04;61.93;97130.78;5057600;28;20204;-72
2021/04/23 08:07:21;;;;;;;12.23;3.70;;;;;;;9.21;60.64;97135.25;5056895;28;20216;-71
2021/04/23 08:09:47;;;;;;;11.17;3.90;;;;;;;9.30;60.64;97137.00;5057859;28;20208;-71
2021/04/23 08:12:13;;;;;;;12.60;3.67;;;;;;;9.32;60.52;97129.81;5057727;28;20378;-69
2021/04/23 08:14:40;;;;;;;13.40;3.90;;;;;;;9.42;58.10;97135.81;5057278;28;20236;-70
2021/04/23 08:17:06;;;;;;;15.20;3.63;;;;;;;9.47;56.53;97139.69;5056748;28;20293;-72
2021/04/23 08:19:34;;;;;;;13.40;3.57;;;;;;;9.63;55.75;97141.66;5054669;28;20200;-70
2021/04/23 08:22:00;;;;;;;15.10;4.10;;;;;;;9.76;55.04;97135.00;5057353;28;20569;-70
2021/04/23 08:24:25;;;;;;;21.53;4.00;;;;;;;9.95;56.26;97137.50;5057354;28;20228;-71
2021/04/23 08:26:51;;;;;;;8.90;3.53;;;;;;;10.08;56.06;97130.91;5056240;28;20529;-72
2021/04/23 08:29:17;;;;;;;11.20;3.70;;;;;;;10.20;54.35;97136.78;5057772;28;20201;-72
2021/04/23 08:31:45;;;;;;;9.80;3.43;;;;;;;10.28;50.61;97144.72;5057216;28;20200;-70
2021/04/23 08:34:11;;;;;;;13.87;4.03;;;;;;;10.55;53.76;97140.13;5057403;28;20262;-72
2021/04/23 08:36:38;;;;;;;12.60;3.67;;;;;;;10.51;53.40;97138.78;5055925;28;20713;-72
2021/04/23 08:39:06;;;;;;;12.27;3.70;;;;;;;10.37;53.70;97137.56;5057280;28;20592;-70
2021/04/23 08:41:33;;;;;;;8.70;3.30;;;;;;;10.69;58.27;97139.56;5057193;28;20197;-72
2021/04/23 08:43:58;;;;;;;10.13;3.40;;;;;;;10.73;55.07;97131.22;5057573;28;20266;-70
2021/04/23 08:46:25;;;;;;;12.97;3.63;;;;;;;10.59;51.44;97137.03;5056380;28;20200;-71
2021/04/23 08:48:54;;;;;;;10.57;3.40;;;;;;;10.68;50.95;97143.19;5055971;28;21050;-71
2021/04/23 08:51:21;;;;;;;9.43;3.60;;;;;;;10.89;52.26;97133.91;5057763;28;20201;-72
2021/04/23 08:53:47;;;;;;;10.07;3.20;;;;;;;10.99;50.93;97135.44;5056897;28;20235;-70
2021/04/23 08:56:13;;;;;;;13.90;3.60;;;;;;;11.21;50.50;97129.59;5055625;28;20204;-71
2021/04/23 08:58:39;;;;;;;13.37;3.80;;;;;;;11.14;48.95;97123.31;5057511;28;20331;-72
2021/04/23 09:01:05;;;;;;;16.23;3.57;;;;;;;11.27;51.48;97128.97;5057585;28;20221;-70
2021/04/23 09:03:31;;;;;;;9.20;3.33;;;;;;;11.30;50.50;97127.81;5056260;28;20207;-71
2021/04/23 09:06:11;;;;;;;11.27;3.33;;;;;;;11.48;46.85;97126.75;5057277;28;20577;-70
2021/04/23 09:08:57;;;;;;;13.17;3.53;;;;;;;11.32;46.52;97123.22;5057076;28;20270;-72
2021/04/23 09:11:26;;;;;;;16.43;3.67;;;;;;;11.45;47.16;97132.31;5057049;28;20215;-70
2021/04/23 09:13:53;;;;;;;18.27;3.33;;;;;;;11.81;55.06;97128.47;5056694;28;20224;-71
2021/04/23 09:16:22;;;;;;;9.85;3.60;;;;;;;12.04;53.79;97130.34;5056309;28;20219;-71
2021/04/23 09:18:48;;;;;;;13.60;4.10;;;;;;;12.36;52.68;97125.06;5056368;28;20622;-72
2021/04/23 09:21:15;;;;;;;10.50;4.00;;;;;;;11.79;51.78;97125.19;5054234;28;20230;-70
2021/04/23 09:23:49;;;;;;;15.23;4.40;;;;;;;11.44;47.95;97129.84;5056442;28;20236;-69
2021/04/23 09:26:32;;;;;;;8.73;3.90;;;;;;;11.67;49.98;97126.47;5056140;28;20204;-70
2021/04/23 09:28:58;;;;;;;14.65;3.72;;;;;;;11.80;48.44;97137.38;5056802;28;20796;-70
2021/04/23 09:31:26;;;;;;;18.10;4.10;;;;;;;12.07;50.77;97137.09;5056714;28;20200;-71
2021/04/23 09:33:54;;;;;;;15.27;3.88;;;;;;;12.14;48.31;97130.97;5055794;28;20208;-72
2021/04/23 09:36:31;;;;;;;12.93;4.32;;;;;;;12.18;54.13;97135.78;5055726;28;20204;-70
2021/04/23 09:39:06;;;;;;;14.03;3.63;;;;;;;12.07;47.18;97131.81;5056135;28;20231;-73
2021/04/23 09:41:32;;;;;;;10.83;4.13;;;;;;;12.35;53.37;97128.69;5056273;28;20261;-71
2021/04/23 09:43:58;;;;;;;12.85;3.88;;;;;;;12.82;47.71;97123.31;5056183;28;20208;-72
2021/04/23 09:46:34;;;;;;;12.75;3.92;;;;;;;12.83;49.07;97124.97;5055910;28;20327;-70
2021/04/23 09:49:17;;;;;;;10.38;3.80;;;;;;;12.86;50.81;97122.00;5055979;28;20212;-71
2021/04/23 09:51:44;;;;;;;16.50;5.32;;;;;;;12.79;50.22;97128.09;5056399;28;20208;-70
2021/04/23 09:54:15;;;;;;;16.48;4.00;;;;;;;13.16;44.83;97115.13;5056204;28;20207;-70
2021/04/23 09:56:41;;;;;;;11.77;3.97;;;;;;;13.13;45.07;97110.19;5053350;28;20236;-70
2021/04/23 09:59:20;;;;;;;11.85;3.88;;;;;;;13.12;46.79;97113.81;5056643;28;20204;-70
2021/04/23 10:01:51;;;;;;;10.98;4.40;;;;;;;12.94;47.04;97121.16;5060893;28;20208;-72
2021/04/23 10:04:23;;;;;;;13.68;3.97;;;;;;;13.16;51.01;97109.81;5059720;28;20200;-74
2021/04/23 10:07:04;;;;;;;10.88;4.10;;;;;;;13.28;47.98;97117.22;5059645;28;20574;-71
2021/04/23 10:09:30;;;;;;;15.27;4.70;;;;;;;13.50;45.88;97112.00;5060898;28;21064;-70
2021/04/23 10:11:56;;;;;;;14.57;4.57;;;;;;;13.45;44.19;97109.03;5059627;28;20312;-71
2021/04/23 10:14:22;;;;;;;20.60;5.18;;;;;;;13.05;47.71;97112.84;5060045;28;20658;-71
2021/04/23 10:16:50;;;;;;;16.08;4.18;;;;;;;12.51;45.33;97118.06;5059459;28;20278;-71
2021/04/23 10:19:15;;;;;;;12.88;4.38;;;;;;;12.81;46.63;97110.25;5060132;28;20402;-74
2021/04/23 10:21:42;;;;;;;14.82;5.18;;;;;;;13.11;46.05;97110.34;5060120;28;20311;-72
2021/04/23 10:24:09;;;;;;;13.73;4.65;;;;;;;13.38;47.01;97103.75;5060056;28;20265;-72
2021/04/23 10:26:35;;;;;;;12.40;4.05;;;;;;;13.52;46.88;97109.97;5058456;28;20196;-73
2021/04/23 10:29:02;;;;;;;13.20;4.03;;;;;;;13.53;47.18;97109.00;5059579;28;20204;-71
2021/04/23 10:31:28;;;;;;;8.98;3.90;;;;;;;13.31;43.71;97116.06;5059504;28;20549;-71
2021/04/23 10:33:55;;;;;;;11.45;4.00;;;;;;;13.35;44.12;97106.75;5060028;28;20219;-71
2021/04/23 10:36:21;;;;;;;13.25;4.68;;;;;;;13.63;47.17;97114.91;5058063;28;20197;-71
2021/04/23 10:38:48;;;;;;;13.10;4.07;;;;;;;13.52;41.66;97112.63;5059703;28;20804;-73
2021/04/23 10:41:15;;;;;;;10.88;4.40;;;;;;;13.46;41.39;97107.19;5059206;28;20212;-72
2021/04/23 10:43:50;;;;;;;9.00;3.80;;;;;;;13.34;43.93;97108.59;5059694;28;20212;-71
2021/04/23 10:46:17;;;;;;;10.80;4.28;;;;;;;13.26;45.01;97110.44;5058282;28;20204;-72
2021/04/23 10:48:45;;;;;;;11.07;3.75;;;;;;;13.36;43.15;97111.06;5059689;28;20714;-71
2021/04/23 10:51:24;;;;;;;10.65;3.97;;;;;;;13.65;44.48;97112.06;5059183;28;20212;-71
2021/04/23 10:53:52;;;;;;;11.73;4.00;;;;;;;13.80;43.19;97113.78;5059441;28;20205;-71
2021/04/23 10:56:30;;;;;;;8.32;3.78;;;;;;;14.18;39.97;97115.53;5056899;28;20201;-71
2021/04/23 10:58:59;;;;;;;11.50;3.83;;;;;;;14.29;46.19;97112.44;5059219;28;20973;-71
2021/04/23 11:01:31;;;;;;;11.45;3.90;;;;;;;14.10;43.32;97110.28;5059114;28;20291;-71
2021/04/23 11:04:04;;;;;;;14.63;4.13;;;;;;;14.31;39.48;97118.41;5059331;28;21117;-71
2021/04/23 11:06:32;;;;;;;15.63;4.35;;;;;;;14.66;40.52;97103.50;5058389;28;20262;-71
2021/04/23 11:09:09;;;;;;;12.68;4.28;;;;;;;14.55;39.54;97102.25;5058604;28;20220;-71
2021/04/23 11:11:37;;;;;;;10.50;3.88;;;;;;;14.67;39.64;97097.16;5057965;28;20250;-71
2021/04/23 11:14:24;;;;;;;9.85;3.92;;;;;;;15.09;39.74;97096.56;5059116;28;20204;-71
2021/04/23 11:16:51;;;;;;;12.00;3.95;;;;;;;14.92;40.48;97092.44;5057692;28;20323;-71
2021/04/23 11:19:36;;;;;;;12.38;3.70;;;;;;;15.02;38.50;97096.47;5059106;28;20211;-71
2021/04/23 11:22:14;;;;;;;10.38;3.83;;;;;;;14.59;40.64;97098.25;5058935;28;20207;-71
2021/04/23 11:25:00;;;;;;;12.13;3.92;;;;;;;14.11;38.81;97103.97;5058810;28;20734;-71
2021/04/23 11:27:28;;;;;;;11.75;3.58;;;;;;;14.70;36.38;97094.16;5058421;28;20638;-71
2021/04/23 11:30:09;;;;;;;12.45;4.03;;;;;;;14.94;38.71;97085.09;5059330;28;20752;-71
2021/04/23 11:32:51;;;;;;;11.40;3.65;;;;;;;14.67;38.16;97088.38;5057716;28;20234;-71
2021/04/23 11:35:20;;;;;;;8.88;3.58;;;;;;;14.89;40.38;97080.34;5058471;28;20203;-71
2021/04/23 11:37:51;;;;;;;11.55;4.20;;;;;;;14.98;40.29;97078.41;5058390;28;20582;-71